sensor_id;sensor_type;location;lat;lon;timestamp;P1;durP1;ratioP1;P2;durP2;ratioP2
71046;SDS011;58703;48.978;8.982;2023-06-10T00:00:12;8.82;;;7.05;;
71046;SDS011;58703;48.978;8.982;2023-06-10T00:02:40;6.72;;;6.10;;
71046;SDS011;58703;48.978;8.982;2023-06-10T00:05:06;7.50;;;6.77;;
71046;SDS011;58703;48.978;8.982;2023-06-10T00:07:34;7.50;;;6.53;;
71046;SDS011;58703;48.978;8.982;2023-06-10T00:10:04;7.70;;;6.68;;
71046;SDS011;58703;48.978;8.982;2023-06-10T00:12:31;7.25;;;6.40;;
71046;SDS011;58703;48.978;8.982;2023-06-10T00:15:02;7.07;;;5.70;;
71046;SDS011;58703;48.978;8.982;2023-06-10T00:17:31;5.97;;;5.30;;
71046;SDS011;58703;48.978;8.982;2023-06-10T00:19:57;8.93;;;6.38;;
71046;SDS011;58703;48.978;8.982;2023-06-10T00:22:23;7.15;;;6.43;;
71046;SDS011;58703;48.978;8.982;2023-06-10T00:24:54;8.07;;;6.60;;
71046;SDS011;58703;48.978;8.982;2023-06-10T00:27:21;9.98;;;6.70;;
71046;SDS011;58703;48.978;8.982;2023-06-10T00:29:47;7.77;;;6.97;;
71046;SDS011;58703;48.978;8.982;2023-06-10T00:32:12;8.50;;;6.63;;
71046;SDS011;58703;48.978;8.982;2023-06-10T00:34:38;7.68;;;6.45;;
71046;SDS011;58703;48.978;8.982;2023-06-10T00:37:03;9.00;;;7.60;;
71046;SDS011;58703;48.978;8.982;2023-06-10T00:39:29;10.95;;;6.88;;
71046;SDS011;58703;48.978;8.982;2023-06-10T00:41:55;8.43;;;7.50;;
71046;SDS011;58703;48.978;8.982;2023-06-10T00:44:21;7.93;;;7.13;;
71046;SDS011;58703;48.978;8.982;2023-06-10T00:46:46;8.37;;;6.93;;
71046;SDS011;58703;48.978;8.982;2023-06-10T00:49:12;9.15;;;6.55;;
71046;SDS011;58703;48.978;8.982;2023-06-10T00:51:38;9.10;;;6.80;;
71046;SDS011;58703;48.978;8.982;2023-06-10T00:54:05;6.97;;;5.90;;
71046;SDS011;58703;48.978;8.982;2023-06-10T00:56:32;7.30;;;6.00;;
71046;SDS011;58703;48.978;8.982;2023-06-10T00:59:00;9.23;;;6.43;;
71046;SDS011;58703;48.978;8.982;2023-06-10T01:01:25;6.73;;;6.13;;
71046;SDS011;58703;48.978;8.982;2023-06-10T01:03:51;8.13;;;6.80;;
71046;SDS011;58703;48.978;8.982;2023-06-10T01:06:24;8.50;;;6.10;;
71046;SDS011;58703;48.978;8.982;2023-06-10T01:11:52;6.90;;;5.90;;
71046;SDS011;58703;48.978;8.982;2023-06-10T01:14:25;6.63;;;5.93;;
71046;SDS011;58703;48.978;8.982;2023-06-10T01:16:51;9.00;;;6.40;;
71046;SDS011;58703;48.978;8.982;2023-06-10T01:19:18;6.77;;;6.07;;
71046;SDS011;58703;48.978;8.982;2023-06-10T01:21:44;6.47;;;5.70;;
71046;SDS011;58703;48.978;8.982;2023-06-10T01:24:14;7.20;;;6.47;;
71046;SDS011;58703;48.978;8.982;2023-06-10T01:26:43;7.22;;;6.50;;
71046;SDS011;58703;48.978;8.982;2023-06-10T01:29:11;6.57;;;5.97;;
71046;SDS011;58703;48.978;8.982;2023-06-10T01:31:54;7.00;;;6.07;;
71046;SDS011;58703;48.978;8.982;2023-06-10T01:34:35;8.30;;;7.07;;
71046;SDS011;58703;48.978;8.982;2023-06-10T01:37:04;7.47;;;6.65;;
71046;SDS011;58703;48.978;8.982;2023-06-10T01:39:30;8.57;;;7.20;;
71046;SDS011;58703;48.978;8.982;2023-06-10T01:41:57;7.95;;;7.15;;
71046;SDS011;58703;48.978;8.982;2023-06-10T01:44:23;7.03;;;6.38;;
71046;SDS011;58703;48.978;8.982;2023-06-10T01:46:49;7.07;;;5.97;;
71046;SDS011;58703;48.978;8.982;2023-06-10T01:49:14;8.93;;;6.37;;
71046;SDS011;58703;48.978;8.982;2023-06-10T01:51:40;8.35;;;6.78;;
71046;SDS011;58703;48.978;8.982;2023-06-10T01:54:06;7.37;;;6.33;;
71046;SDS011;58703;48.978;8.982;2023-06-10T01:56:32;6.10;;;5.50;;
71046;SDS011;58703;48.978;8.982;2023-06-10T01:58:58;6.40;;;5.73;;
71046;SDS011;58703;48.978;8.982;2023-06-10T02:01:24;6.93;;;6.18;;
71046;SDS011;58703;48.978;8.982;2023-06-10T02:03:50;6.20;;;5.60;;
71046;SDS011;58703;48.978;8.982;2023-06-10T02:06:16;6.80;;;5.70;;
71046;SDS011;58703;48.978;8.982;2023-06-10T02:08:41;7.45;;;5.75;;
71046;SDS011;58703;48.978;8.982;2023-06-10T02:11:07;7.03;;;6.33;;
71046;SDS011;58703;48.978;8.982;2023-06-10T02:13:33;7.53;;;6.70;;
71046;SDS011;58703;48.978;8.982;2023-06-10T02:15:58;9.10;;;6.53;;
71046;SDS011;58703;48.978;8.982;2023-06-10T02:18:25;8.07;;;6.78;;
71046;SDS011;58703;48.978;8.982;2023-06-10T02:20:52;6.63;;;6.00;;
71046;SDS011;58703;48.978;8.982;2023-06-10T02:23:17;7.60;;;6.00;;
71046;SDS011;58703;48.978;8.982;2023-06-10T02:25:43;9.00;;;6.40;;
71046;SDS011;58703;48.978;8.982;2023-06-10T02:28:08;6.90;;;6.20;;
71046;SDS011;58703;48.978;8.982;2023-06-10T02:30:34;6.57;;;5.97;;
71046;SDS011;58703;48.978;8.982;2023-06-10T02:33:00;6.70;;;6.00;;
71046;SDS011;58703;48.978;8.982;2023-06-10T02:35:26;7.20;;;6.50;;
71046;SDS011;58703;48.978;8.982;2023-06-10T02:37:52;7.67;;;6.30;;
71046;SDS011;58703;48.978;8.982;2023-06-10T02:40:17;6.63;;;6.03;;
71046;SDS011;58703;48.978;8.982;2023-06-10T02:42:43;8.45;;;7.03;;
71046;SDS011;58703;48.978;8.982;2023-06-10T02:45:08;6.87;;;6.17;;
71046;SDS011;58703;48.978;8.982;2023-06-10T02:47:34;7.17;;;6.43;;
71046;SDS011;58703;48.978;8.982;2023-06-10T02:50:02;7.00;;;6.30;;
71046;SDS011;58703;48.978;8.982;2023-06-10T02:52:29;7.50;;;6.75;;
71046;SDS011;58703;48.978;8.982;2023-06-10T02:54:55;7.28;;;6.32;;
71046;SDS011;58703;48.978;8.982;2023-06-10T02:57:20;7.90;;;7.10;;
71046;SDS011;58703;48.978;8.982;2023-06-10T02:59:46;6.50;;;5.87;;
71046;SDS011;58703;48.978;8.982;2023-06-10T03:02:11;8.75;;;7.03;;
71046;SDS011;58703;48.978;8.982;2023-06-10T03:04:37;8.13;;;6.73;;
71046;SDS011;58703;48.978;8.982;2023-06-10T03:07:03;7.90;;;6.45;;
71046;SDS011;58703;48.978;8.982;2023-06-10T03:09:32;8.13;;;7.32;;
71046;SDS011;58703;48.978;8.982;2023-06-10T03:11:58;7.43;;;6.63;;
71046;SDS011;58703;48.978;8.982;2023-06-10T03:14:24;6.97;;;6.20;;
71046;SDS011;58703;48.978;8.982;2023-06-10T03:16:50;8.30;;;6.50;;
71046;SDS011;58703;48.978;8.982;2023-06-10T03:19:16;6.28;;;5.68;;
71046;SDS011;58703;48.978;8.982;2023-06-10T03:21:43;6.70;;;5.97;;
71046;SDS011;58703;48.978;8.982;2023-06-10T03:24:09;7.28;;;6.40;;
71046;SDS011;58703;48.978;8.982;2023-06-10T03:26:36;10.35;;;5.90;;
71046;SDS011;58703;48.978;8.982;2023-06-10T03:29:01;6.50;;;5.90;;
71046;SDS011;58703;48.978;8.982;2023-06-10T03:31:27;7.50;;;5.47;;
71046;SDS011;58703;48.978;8.982;2023-06-10T03:33:53;6.30;;;5.70;;
71046;SDS011;58703;48.978;8.982;2023-06-10T03:36:18;6.17;;;5.57;;
71046;SDS011;58703;48.978;8.982;2023-06-10T03:38:44;8.15;;;6.47;;
71046;SDS011;58703;48.978;8.982;2023-06-10T03:41:09;6.70;;;6.00;;
71046;SDS011;58703;48.978;8.982;2023-06-10T03:43:35;7.37;;;6.17;;
71046;SDS011;58703;48.978;8.982;2023-06-10T03:46:00;8.68;;;7.10;;
71046;SDS011;58703;48.978;8.982;2023-06-10T03:48:26;7.80;;;6.47;;
71046;SDS011;58703;48.978;8.982;2023-06-10T03:50:51;7.90;;;6.67;;
71046;SDS011;58703;48.978;8.982;2023-06-10T03:53:17;7.82;;;6.68;;
71046;SDS011;58703;48.978;8.982;2023-06-10T03:55:42;7.43;;;6.73;;
71046;SDS011;58703;48.978;8.982;2023-06-10T03:58:08;7.75;;;6.97;;
71046;SDS011;58703;48.978;8.982;2023-06-10T04:00:34;9.33;;;6.33;;
71046;SDS011;58703;48.978;8.982;2023-06-10T04:03:06;6.88;;;6.22;;
71046;SDS011;58703;48.978;8.982;2023-06-10T04:05:34;8.37;;;6.73;;
71046;SDS011;58703;48.978;8.982;2023-06-10T04:08:00;7.28;;;5.43;;
71046;SDS011;58703;48.978;8.982;2023-06-10T04:10:26;7.43;;;5.50;;
71046;SDS011;58703;48.978;8.982;2023-06-10T04:12:52;6.93;;;5.57;;
71046;SDS011;58703;48.978;8.982;2023-06-10T04:15:18;6.27;;;4.93;;
71046;SDS011;58703;48.978;8.982;2023-06-10T04:17:43;5.87;;;5.13;;
71046;SDS011;58703;48.978;8.982;2023-06-10T04:20:09;6.30;;;5.57;;
71046;SDS011;58703;48.978;8.982;2023-06-10T04:22:35;8.17;;;5.57;;
71046;SDS011;58703;48.978;8.982;2023-06-10T04:25:01;6.45;;;5.20;;
71046;SDS011;58703;48.978;8.982;2023-06-10T04:27:27;5.30;;;4.80;;
71046;SDS011;58703;48.978;8.982;2023-06-10T04:29:52;6.10;;;5.47;;
71046;SDS011;58703;48.978;8.982;2023-06-10T04:32:18;6.53;;;5.93;;
71046;SDS011;58703;48.978;8.982;2023-06-10T04:34:44;5.90;;;5.40;;
71046;SDS011;58703;48.978;8.982;2023-06-10T04:37:09;6.40;;;5.80;;
71046;SDS011;58703;48.978;8.982;2023-06-10T04:39:35;6.10;;;5.27;;
71046;SDS011;58703;48.978;8.982;2023-06-10T04:42:01;6.22;;;4.57;;
71046;SDS011;58703;48.978;8.982;2023-06-10T04:44:26;7.43;;;5.43;;
71046;SDS011;58703;48.978;8.982;2023-06-10T04:46:52;5.67;;;5.17;;
71046;SDS011;58703;48.978;8.982;2023-06-10T04:49:17;6.57;;;5.57;;
71046;SDS011;58703;48.978;8.982;2023-06-10T04:51:43;6.15;;;4.97;;
71046;SDS011;58703;48.978;8.982;2023-06-10T04:54:09;6.37;;;5.20;;
71046;SDS011;58703;48.978;8.982;2023-06-10T04:56:34;5.70;;;4.85;;
71046;SDS011;58703;48.978;8.982;2023-06-10T04:59:00;5.80;;;5.27;;
71046;SDS011;58703;48.978;8.982;2023-06-10T05:01:25;6.43;;;5.35;;
71046;SDS011;58703;48.978;8.982;2023-06-10T05:03:52;6.80;;;4.83;;
71046;SDS011;58703;48.978;8.982;2023-06-10T05:06:18;6.25;;;5.65;;
71046;SDS011;58703;48.978;8.982;2023-06-10T05:08:44;5.57;;;5.17;;
71046;SDS011;58703;48.978;8.982;2023-06-10T05:11:09;6.80;;;5.50;;
71046;SDS011;58703;48.978;8.982;2023-06-10T05:13:35;5.90;;;5.00;;
71046;SDS011;58703;48.978;8.982;2023-06-10T05:16:00;5.93;;;5.33;;
71046;SDS011;58703;48.978;8.982;2023-06-10T05:18:26;4.93;;;4.43;;
71046;SDS011;58703;48.978;8.982;2023-06-10T05:20:52;6.30;;;5.70;;
71046;SDS011;58703;48.978;8.982;2023-06-10T05:23:19;5.55;;;4.85;;
71046;SDS011;58703;48.978;8.982;2023-06-10T05:25:44;8.25;;;4.60;;
71046;SDS011;58703;48.978;8.982;2023-06-10T05:28:10;4.63;;;4.10;;
71046;SDS011;58703;48.978;8.982;2023-06-10T05:30:36;6.15;;;4.68;;
71046;SDS011;58703;48.978;8.982;2023-06-10T05:33:02;5.67;;;4.60;;
71046;SDS011;58703;48.978;8.982;2023-06-10T05:35:28;6.90;;;4.57;;
71046;SDS011;58703;48.978;8.982;2023-06-10T05:37:54;5.50;;;4.47;;
71046;SDS011;58703;48.978;8.982;2023-06-10T05:40:20;6.00;;;4.50;;
71046;SDS011;58703;48.978;8.982;2023-06-10T05:42:45;5.17;;;4.00;;
71046;SDS011;58703;48.978;8.982;2023-06-10T05:45:11;4.43;;;3.97;;
71046;SDS011;58703;48.978;8.982;2023-06-10T05:47:36;4.50;;;4.10;;
71046;SDS011;58703;48.978;8.982;2023-06-10T05:50:02;5.80;;;4.37;;
71046;SDS011;58703;48.978;8.982;2023-06-10T05:52:32;4.70;;;4.30;;
71046;SDS011;58703;48.978;8.982;2023-06-10T05:54:58;4.25;;;3.70;;
71046;SDS011;58703;48.978;8.982;2023-06-10T05:57:25;4.40;;;4.00;;
71046;SDS011;58703;48.978;8.982;2023-06-10T05:59:51;4.00;;;3.60;;
71046;SDS011;58703;48.978;8.982;2023-06-10T06:02:16;4.05;;;3.42;;
71046;SDS011;58703;48.978;8.982;2023-06-10T06:04:42;4.03;;;3.67;;
71046;SDS011;58703;48.978;8.982;2023-06-10T06:07:08;3.83;;;3.50;;
71046;SDS011;58703;48.978;8.982;2023-06-10T06:09:34;3.70;;;3.40;;
71046;SDS011;58703;48.978;8.982;2023-06-10T06:11:59;4.10;;;3.72;;
71046;SDS011;58703;48.978;8.982;2023-06-10T06:14:25;3.93;;;3.50;;
71046;SDS011;58703;48.978;8.982;2023-06-10T06:16:50;6.20;;;4.10;;
71046;SDS011;58703;48.978;8.982;2023-06-10T06:19:16;4.22;;;3.45;;
71046;SDS011;58703;48.978;8.982;2023-06-10T06:21:41;4.37;;;3.97;;
71046;SDS011;58703;48.978;8.982;2023-06-10T06:24:07;3.90;;;3.60;;
71046;SDS011;58703;48.978;8.982;2023-06-10T06:26:33;4.50;;;4.10;;
71046;SDS011;58703;48.978;8.982;2023-06-10T06:28:58;4.27;;;3.80;;
71046;SDS011;58703;48.978;8.982;2023-06-10T06:31:23;6.53;;;3.92;;
71046;SDS011;58703;48.978;8.982;2023-06-10T06:33:49;4.33;;;3.80;;
71046;SDS011;58703;48.978;8.982;2023-06-10T06:36:15;4.20;;;3.80;;
71046;SDS011;58703;48.978;8.982;2023-06-10T06:38:40;4.80;;;4.40;;
71046;SDS011;58703;48.978;8.982;2023-06-10T06:41:06;5.20;;;4.20;;
71046;SDS011;58703;48.978;8.982;2023-06-10T06:43:31;4.30;;;3.90;;
71046;SDS011;58703;48.978;8.982;2023-06-10T06:45:57;4.40;;;4.00;;
71046;SDS011;58703;48.978;8.982;2023-06-10T06:48:23;4.88;;;3.88;;
71046;SDS011;58703;48.978;8.982;2023-06-10T06:50:49;4.90;;;3.80;;
71046;SDS011;58703;48.978;8.982;2023-06-10T06:53:14;4.72;;;4.30;;
71046;SDS011;58703;48.978;8.982;2023-06-10T06:55:40;3.90;;;3.50;;
71046;SDS011;58703;48.978;8.982;2023-06-10T06:58:05;4.90;;;4.50;;
71046;SDS011;58703;48.978;8.982;2023-06-10T07:00:31;5.40;;;4.10;;
71046;SDS011;58703;48.978;8.982;2023-06-10T07:02:57;4.10;;;3.70;;
71046;SDS011;58703;48.978;8.982;2023-06-10T07:05:23;4.63;;;4.10;;
71046;SDS011;58703;48.978;8.982;2023-06-10T07:07:52;4.93;;;4.53;;
71046;SDS011;58703;48.978;8.982;2023-06-10T07:10:23;3.40;;;3.10;;
71046;SDS011;58703;48.978;8.982;2023-06-10T07:12:51;5.07;;;3.63;;
71046;SDS011;58703;48.978;8.982;2023-06-10T07:15:17;4.50;;;3.72;;
71046;SDS011;58703;48.978;8.982;2023-06-10T07:17:43;4.72;;;4.32;;
71046;SDS011;58703;48.978;8.982;2023-06-10T07:20:09;4.40;;;4.00;;
71046;SDS011;58703;48.978;8.982;2023-06-10T07:22:35;4.20;;;3.70;;
71046;SDS011;58703;48.978;8.982;2023-06-10T07:25:01;5.47;;;3.97;;
71046;SDS011;58703;48.978;8.982;2023-06-10T07:27:26;4.37;;;3.97;;
71046;SDS011;58703;48.978;8.982;2023-06-10T07:29:52;5.72;;;4.20;;
71046;SDS011;58703;48.978;8.982;2023-06-10T07:32:18;5.17;;;3.60;;
71046;SDS011;58703;48.978;8.982;2023-06-10T07:34:45;4.53;;;4.13;;
71046;SDS011;58703;48.978;8.982;2023-06-10T07:37:11;4.93;;;3.93;;
71046;SDS011;58703;48.978;8.982;2023-06-10T07:39:36;3.63;;;3.30;;
71046;SDS011;58703;48.978;8.982;2023-06-10T07:42:02;4.72;;;4.30;;
71046;SDS011;58703;48.978;8.982;2023-06-10T07:44:28;4.83;;;4.43;;
71046;SDS011;58703;48.978;8.982;2023-06-10T07:46:53;4.30;;;3.70;;
71046;SDS011;58703;48.978;8.982;2023-06-10T07:49:19;5.03;;;3.60;;
71046;SDS011;58703;48.978;8.982;2023-06-10T07:51:44;4.27;;;3.70;;
71046;SDS011;58703;48.978;8.982;2023-06-10T07:54:10;4.00;;;3.67;;
71046;SDS011;58703;48.978;8.982;2023-06-10T07:56:39;4.10;;;3.80;;
71046;SDS011;58703;48.978;8.982;2023-06-10T07:59:06;6.05;;;4.20;;
71046;SDS011;58703;48.978;8.982;2023-06-10T08:01:34;5.80;;;3.60;;
71046;SDS011;58703;48.978;8.982;2023-06-10T08:04:01;4.10;;;3.67;;
71046;SDS011;58703;48.978;8.982;2023-06-10T08:06:30;4.10;;;3.80;;
71046;SDS011;58703;48.978;8.982;2023-06-10T08:08:56;4.57;;;4.18;;
71046;SDS011;58703;48.978;8.982;2023-06-10T08:11:23;5.53;;;4.57;;
71046;SDS011;58703;48.978;8.982;2023-06-10T08:13:50;4.25;;;3.85;;
71046;SDS011;58703;48.978;8.982;2023-06-10T08:16:17;4.75;;;4.35;;
71046;SDS011;58703;48.978;8.982;2023-06-10T08:18:44;5.00;;;4.57;;
71046;SDS011;58703;48.978;8.982;2023-06-10T08:21:09;4.53;;;4.13;;
71046;SDS011;58703;48.978;8.982;2023-06-10T08:23:36;4.57;;;4.17;;
71046;SDS011;58703;48.978;8.982;2023-06-10T08:26:03;3.90;;;3.50;;
71046;SDS011;58703;48.978;8.982;2023-06-10T08:28:30;5.07;;;4.30;;
71046;SDS011;58703;48.978;8.982;2023-06-10T08:30:56;4.47;;;4.07;;
71046;SDS011;58703;48.978;8.982;2023-06-10T08:33:22;8.13;;;4.13;;
71046;SDS011;58703;48.978;8.982;2023-06-10T08:35:49;4.83;;;4.20;;
71046;SDS011;58703;48.978;8.982;2023-06-10T08:38:16;5.55;;;4.05;;
71046;SDS011;58703;48.978;8.982;2023-06-10T08:40:43;5.22;;;3.88;;
71046;SDS011;58703;48.978;8.982;2023-06-10T08:46:24;4.40;;;4.00;;
71046;SDS011;58703;48.978;8.982;2023-06-10T08:48:51;4.13;;;3.72;;
71046;SDS011;58703;48.978;8.982;2023-06-10T08:51:21;5.22;;;4.78;;
71046;SDS011;58703;48.978;8.982;2023-06-10T08:53:52;4.50;;;4.10;;
71046;SDS011;58703;48.978;8.982;2023-06-10T08:56:25;4.75;;;4.35;;
71046;SDS011;58703;48.978;8.982;2023-06-10T08:58:54;4.70;;;4.17;;
71046;SDS011;58703;48.978;8.982;2023-06-10T09:01:23;4.45;;;4.05;;
71046;SDS011;58703;48.978;8.982;2023-06-10T09:03:52;4.88;;;4.53;;
71046;SDS011;58703;48.978;8.982;2023-06-10T09:06:20;4.82;;;4.32;;
71046;SDS011;58703;48.978;8.982;2023-06-10T09:08:46;4.25;;;3.85;;
71046;SDS011;58703;48.978;8.982;2023-06-10T09:11:13;4.70;;;4.30;;
71046;SDS011;58703;48.978;8.982;2023-06-10T09:13:40;5.05;;;4.20;;
71046;SDS011;58703;48.978;8.982;2023-06-10T09:16:08;4.88;;;4.38;;
71046;SDS011;58703;48.978;8.982;2023-06-10T09:18:38;4.60;;;4.03;;
71046;SDS011;58703;48.978;8.982;2023-06-10T09:21:05;4.43;;;4.03;;
71046;SDS011;58703;48.978;8.982;2023-06-10T09:23:32;5.00;;;3.93;;
71046;SDS011;58703;48.978;8.982;2023-06-10T09:25:58;4.70;;;4.20;;
71046;SDS011;58703;48.978;8.982;2023-06-10T09:28:25;5.50;;;4.50;;
71046;SDS011;58703;48.978;8.982;2023-06-10T09:31:13;5.63;;;4.13;;
71046;SDS011;58703;48.978;8.982;2023-06-10T09:33:39;6.40;;;4.33;;
71046;SDS011;58703;48.978;8.982;2023-06-10T09:36:06;4.55;;;4.15;;
71046;SDS011;58703;48.978;8.982;2023-06-10T09:38:34;4.47;;;3.92;;
71046;SDS011;58703;48.978;8.982;2023-06-10T09:41:02;5.47;;;4.15;;
71046;SDS011;58703;48.978;8.982;2023-06-10T09:43:42;4.65;;;4.25;;
71046;SDS011;58703;48.978;8.982;2023-06-10T09:46:19;4.33;;;3.93;;
71046;SDS011;58703;48.978;8.982;2023-06-10T09:48:47;5.00;;;4.43;;
71046;SDS011;58703;48.978;8.982;2023-06-10T09:51:14;4.65;;;4.25;;
71046;SDS011;58703;48.978;8.982;2023-06-10T09:53:47;4.80;;;4.30;;
71046;SDS011;58703;48.978;8.982;2023-06-10T09:56:18;5.80;;;4.22;;
71046;SDS011;58703;48.978;8.982;2023-06-10T09:58:46;5.77;;;4.10;;
71046;SDS011;58703;48.978;8.982;2023-06-10T10:01:16;4.60;;;4.07;;
71046;SDS011;58703;48.978;8.982;2023-06-10T10:03:51;4.18;;;3.88;;
71046;SDS011;58703;48.978;8.982;2023-06-10T10:06:37;4.82;;;4.32;;
71046;SDS011;58703;48.978;8.982;2023-06-10T10:09:05;5.00;;;3.90;;
71046;SDS011;58703;48.978;8.982;2023-06-10T10:11:31;4.37;;;4.00;;
71046;SDS011;58703;48.978;8.982;2023-06-10T10:13:59;4.75;;;4.25;;
71046;SDS011;58703;48.978;8.982;2023-06-10T10:16:33;4.45;;;4.05;;
71046;SDS011;58703;48.978;8.982;2023-06-10T10:19:07;4.38;;;4.05;;
71046;SDS011;58703;48.978;8.982;2023-06-10T10:21:50;4.45;;;4.05;;
71046;SDS011;58703;48.978;8.982;2023-06-10T10:24:23;5.13;;;4.73;;
71046;SDS011;58703;48.978;8.982;2023-06-10T10:26:58;4.43;;;4.03;;
71046;SDS011;58703;48.978;8.982;2023-06-10T10:29:33;4.93;;;3.85;;
71046;SDS011;58703;48.978;8.982;2023-06-10T10:32:03;4.78;;;4.05;;
71046;SDS011;58703;48.978;8.982;2023-06-10T10:37:39;4.50;;;4.03;;
71046;SDS011;58703;48.978;8.982;2023-06-10T10:40:06;4.10;;;3.60;;
71046;SDS011;58703;48.978;8.982;2023-06-10T10:42:34;5.35;;;4.25;;
71046;SDS011;58703;48.978;8.982;2023-06-10T10:45:03;4.55;;;4.15;;
71046;SDS011;58703;48.978;8.982;2023-06-10T10:47:31;4.57;;;3.75;;
71046;SDS011;58703;48.978;8.982;2023-06-10T10:50:03;5.00;;;3.83;;
71046;SDS011;58703;48.978;8.982;2023-06-10T10:53:14;4.80;;;3.45;;
71046;SDS011;58703;48.978;8.982;2023-06-10T10:55:34;4.57;;;3.97;;
71046;SDS011;58703;48.978;8.982;2023-06-10T10:58:07;3.92;;;3.53;;
71046;SDS011;58703;48.978;8.982;2023-06-10T11:00:35;4.38;;;3.83;;
71046;SDS011;58703;48.978;8.982;2023-06-10T11:03:06;5.23;;;3.73;;
71046;SDS011;58703;48.978;8.982;2023-06-10T11:05:45;3.88;;;3.45;;
71046;SDS011;58703;48.978;8.982;2023-06-10T11:10:58;5.18;;;3.25;;
71046;SDS011;58703;48.978;8.982;2023-06-10T11:13:26;3.50;;;3.20;;
71046;SDS011;58703;48.978;8.982;2023-06-10T11:15:56;7.22;;;3.97;;
71046;SDS011;58703;48.978;8.982;2023-06-10T11:18:28;3.90;;;3.60;;
71046;SDS011;58703;48.978;8.982;2023-06-10T11:21:01;6.07;;;3.80;;
71046;SDS011;58703;48.978;8.982;2023-06-10T11:23:40;4.50;;;4.10;;
71046;SDS011;58703;48.978;8.982;2023-06-10T11:26:17;3.63;;;3.33;;
71046;SDS011;58703;48.978;8.982;2023-06-10T11:29:06;3.47;;;3.17;;
71046;SDS011;58703;48.978;8.982;2023-06-10T11:31:44;5.57;;;4.13;;
71046;SDS011;58703;48.978;8.982;2023-06-10T11:34:10;4.38;;;3.83;;
71046;SDS011;58703;48.978;8.982;2023-06-10T11:36:39;4.72;;;3.88;;
71046;SDS011;58703;48.978;8.982;2023-06-10T11:39:09;3.90;;;3.50;;
71046;SDS011;58703;48.978;8.982;2023-06-10T11:41:35;3.20;;;2.90;;
71046;SDS011;58703;48.978;8.982;2023-06-10T11:44:03;3.55;;;3.25;;
71046;SDS011;58703;48.978;8.982;2023-06-10T11:46:39;3.80;;;3.50;;
71046;SDS011;58703;48.978;8.982;2023-06-10T11:49:09;4.03;;;3.65;;
71046;SDS011;58703;48.978;8.982;2023-06-10T11:51:37;4.40;;;3.87;;
71046;SDS011;58703;48.978;8.982;2023-06-10T11:54:06;4.20;;;3.60;;
71046;SDS011;58703;48.978;8.982;2023-06-10T11:56:35;3.88;;;3.47;;
71046;SDS011;58703;48.978;8.982;2023-06-10T11:59:08;4.10;;;3.40;;
71046;SDS011;58703;48.978;8.982;2023-06-10T12:01:35;4.03;;;3.47;;
71046;SDS011;58703;48.978;8.982;2023-06-10T12:04:09;4.10;;;3.17;;
71046;SDS011;58703;48.978;8.982;2023-06-10T12:06:38;3.92;;;3.15;;
71046;SDS011;58703;48.978;8.982;2023-06-10T12:09:18;3.90;;;3.50;;
71046;SDS011;58703;48.978;8.982;2023-06-10T12:12:11;4.18;;;3.60;;
71046;SDS011;58703;48.978;8.982;2023-06-10T12:14:53;3.63;;;3.33;;
71046;SDS011;58703;48.978;8.982;2023-06-10T12:17:23;5.90;;;3.30;;
71046;SDS011;58703;48.978;8.982;2023-06-10T12:19:56;3.83;;;3.40;;
71046;SDS011;58703;48.978;8.982;2023-06-10T12:22:24;3.50;;;3.10;;
71046;SDS011;58703;48.978;8.982;2023-06-10T12:25:03;4.90;;;3.33;;
71046;SDS011;58703;48.978;8.982;2023-06-10T12:27:31;4.25;;;3.20;;
71046;SDS011;58703;48.978;8.982;2023-06-10T12:30:01;4.33;;;3.60;;
71046;SDS011;58703;48.978;8.982;2023-06-10T12:32:40;3.40;;;3.00;;
71046;SDS011;58703;48.978;8.982;2023-06-10T12:35:09;5.80;;;3.38;;
71046;SDS011;58703;48.978;8.982;2023-06-10T12:38:04;3.45;;;3.15;;
71046;SDS011;58703;48.978;8.982;2023-06-10T12:40:34;3.67;;;3.38;;
71046;SDS011;58703;48.978;8.982;2023-06-10T12:43:03;3.50;;;3.20;;
71046;SDS011;58703;48.978;8.982;2023-06-10T12:45:34;4.07;;;3.13;;
71046;SDS011;58703;48.978;8.982;2023-06-10T12:50:51;3.50;;;3.20;;
71046;SDS011;58703;48.978;8.982;2023-06-10T12:53:22;3.60;;;3.30;;
71046;SDS011;58703;48.978;8.982;2023-06-10T12:55:49;3.50;;;3.30;;
71046;SDS011;58703;48.978;8.982;2023-06-10T12:58:15;4.50;;;3.60;;
71046;SDS011;58703;48.978;8.982;2023-06-10T13:00:42;3.40;;;3.10;;
71046;SDS011;58703;48.978;8.982;2023-06-10T13:03:09;3.00;;;2.70;;
71046;SDS011;58703;48.978;8.982;2023-06-10T13:05:35;3.05;;;2.85;;
71046;SDS011;58703;48.978;8.982;2023-06-10T13:08:20;4.32;;;3.30;;
71046;SDS011;58703;48.978;8.982;2023-06-10T13:10:47;2.80;;;2.47;;
71046;SDS011;58703;48.978;8.982;2023-06-10T13:13:14;5.35;;;3.33;;
71046;SDS011;58703;48.978;8.982;2023-06-10T13:15:41;2.60;;;2.40;;
71046;SDS011;58703;48.978;8.982;2023-06-10T13:18:08;4.15;;;3.30;;
71046;SDS011;58703;48.978;8.982;2023-06-10T13:20:34;3.63;;;3.05;;
71046;SDS011;58703;48.978;8.982;2023-06-10T13:23:02;3.73;;;3.50;;
71046;SDS011;58703;48.978;8.982;2023-06-10T13:25:30;3.53;;;3.22;;
71046;SDS011;58703;48.978;8.982;2023-06-10T13:27:56;4.03;;;3.13;;
71046;SDS011;58703;48.978;8.982;2023-06-10T13:30:23;3.78;;;3.10;;
71046;SDS011;58703;48.978;8.982;2023-06-10T13:32:50;3.65;;;3.35;;
71046;SDS011;58703;48.978;8.982;2023-06-10T13:35:17;3.10;;;2.90;;
71046;SDS011;58703;48.978;8.982;2023-06-10T13:37:44;4.55;;;2.92;;
71046;SDS011;58703;48.978;8.982;2023-06-10T13:40:11;6.25;;;3.00;;
71046;SDS011;58703;48.978;8.982;2023-06-10T13:42:38;5.20;;;3.45;;
71046;SDS011;58703;48.978;8.982;2023-06-10T13:45:05;3.03;;;2.83;;
71046;SDS011;58703;48.978;8.982;2023-06-10T13:47:32;2.80;;;2.60;;
71046;SDS011;58703;48.978;8.982;2023-06-10T13:49:59;3.53;;;2.75;;
71046;SDS011;58703;48.978;8.982;2023-06-10T13:52:24;4.57;;;2.93;;
71046;SDS011;58703;48.978;8.982;2023-06-10T13:54:51;3.67;;;2.88;;
71046;SDS011;58703;48.978;8.982;2023-06-10T13:57:18;4.05;;;3.00;;
71046;SDS011;58703;48.978;8.982;2023-06-10T13:59:43;3.50;;;3.20;;
71046;SDS011;58703;48.978;8.982;2023-06-10T14:02:10;2.93;;;2.73;;
71046;SDS011;58703;48.978;8.982;2023-06-10T14:04:37;3.33;;;3.13;;
71046;SDS011;58703;48.978;8.982;2023-06-10T14:07:05;2.83;;;2.63;;
71046;SDS011;58703;48.978;8.982;2023-06-10T14:09:32;3.30;;;3.00;;
71046;SDS011;58703;48.978;8.982;2023-06-10T14:11:58;3.28;;;3.08;;
71046;SDS011;58703;48.978;8.982;2023-06-10T14:14:24;3.27;;;3.07;;
71046;SDS011;58703;48.978;8.982;2023-06-10T14:16:53;4.25;;;3.85;;
71046;SDS011;58703;48.978;8.982;2023-06-10T14:19:20;3.20;;;3.00;;
71046;SDS011;58703;48.978;8.982;2023-06-10T14:21:46;3.92;;;3.58;;
71046;SDS011;58703;48.978;8.982;2023-06-10T14:24:14;3.38;;;3.08;;
71046;SDS011;58703;48.978;8.982;2023-06-10T14:26:41;2.80;;;2.60;;
71046;SDS011;58703;48.978;8.982;2023-06-10T14:29:07;2.63;;;2.42;;
71046;SDS011;58703;48.978;8.982;2023-06-10T14:31:35;3.40;;;3.05;;
71046;SDS011;58703;48.978;8.982;2023-06-10T14:34:02;3.50;;;2.80;;
71046;SDS011;58703;48.978;8.982;2023-06-10T14:36:29;9.25;;;2.97;;
71046;SDS011;58703;48.978;8.982;2023-06-10T14:38:55;6.03;;;3.53;;
71046;SDS011;58703;48.978;8.982;2023-06-10T14:41:23;3.42;;;3.13;;
71046;SDS011;58703;48.978;8.982;2023-06-10T14:43:50;3.47;;;3.05;;
71046;SDS011;58703;48.978;8.982;2023-06-10T14:46:17;3.30;;;3.10;;
71046;SDS011;58703;48.978;8.982;2023-06-10T14:48:47;3.90;;;3.33;;
71046;SDS011;58703;48.978;8.982;2023-06-10T14:51:15;3.60;;;3.30;;
71046;SDS011;58703;48.978;8.982;2023-06-10T14:53:42;3.33;;;3.03;;
71046;SDS011;58703;48.978;8.982;2023-06-10T14:56:09;4.00;;;3.05;;
71046;SDS011;58703;48.978;8.982;2023-06-10T14:58:36;3.35;;;3.10;;
71046;SDS011;58703;48.978;8.982;2023-06-10T15:01:03;2.72;;;2.42;;
71046;SDS011;58703;48.978;8.982;2023-06-10T15:03:30;4.03;;;2.90;;
71046;SDS011;58703;48.978;8.982;2023-06-10T15:05:58;2.80;;;2.60;;